createdAt,value
2018-04-29T00:02:24.497Z,4.80
2018-04-29T00:04:52.109Z,4.47
2018-04-29T00:07:20.581Z,4.27
2018-04-29T00:09:48.222Z,4.50
2018-04-29T00:12:15.875Z,4.20
2018-04-29T00:14:43.506Z,4.33
2018-04-29T00:17:11.170Z,4.53
2018-04-29T00:19:38.989Z,4.60
2018-04-29T00:22:06.738Z,4.53
2018-04-29T00:24:35.134Z,4.43
2018-04-29T00:27:03.578Z,4.30
2018-04-29T00:29:31.458Z,4.23
2018-04-29T00:31:59.144Z,4.40
2018-04-29T00:34:26.971Z,4.30
2018-04-29T00:36:54.598Z,3.77
2018-04-29T00:39:23.031Z,4.30
2018-04-29T00:41:50.659Z,3.70
2018-04-29T00:44:18.321Z,3.60
2018-04-29T00:46:45.965Z,4.00
2018-04-29T00:49:14.398Z,4.03
2018-04-29T00:51:53.959Z,4.10
2018-04-29T00:54:21.621Z,3.90
2018-04-29T00:56:49.242Z,3.97
2018-04-29T00:59:16.897Z,3.90
2018-04-29T01:01:44.522Z,3.87
2018-04-29T01:04:12.203Z,3.33
2018-04-29T01:06:39.864Z,4.33
2018-04-29T01:09:07.685Z,3.90
2018-04-29T01:11:36.081Z,4.00
2018-04-29T01:14:04.305Z,3.63
2018-04-29T01:16:32.360Z,3.63
2018-04-29T01:19:00.012Z,3.70
2018-04-29T01:21:27.658Z,3.50
2018-04-29T01:23:55.289Z,3.60
2018-04-29T01:26:22.954Z,3.60
2018-04-29T01:28:50.588Z,3.67
2018-04-29T01:31:18.262Z,3.80
2018-04-29T01:33:46.046Z,3.80
2018-04-29T01:36:13.962Z,4.10
2018-04-29T01:38:41.657Z,3.50
2018-04-29T01:41:09.306Z,4.00
2018-04-29T01:43:37.732Z,3.70
2018-04-29T01:46:05.375Z,4.10
2018-04-29T01:48:33.129Z,3.70
2018-04-29T01:51:00.789Z,3.50
2018-04-29T01:53:28.425Z,3.60
2018-04-29T01:55:56.112Z,3.37
2018-04-29T01:58:23.721Z,3.80
2018-04-29T02:00:51.370Z,3.60
2018-04-29T02:03:18.989Z,3.80
2018-04-29T02:05:46.632Z,3.53
2018-04-29T02:11:26.553Z,3.63
2018-04-29T02:13:54.197Z,3.50
2018-04-29T02:16:21.825Z,3.53
2018-04-29T02:18:49.480Z,3.47
2018-04-29T02:21:17.387Z,3.70
2018-04-29T02:23:45.838Z,3.67
2018-04-29T02:26:13.454Z,3.60
2018-04-29T02:28:42.834Z,3.47
2018-04-29T02:31:10.501Z,3.73
2018-04-29T02:33:38.170Z,3.53
2018-04-29T02:36:05.841Z,3.40
2018-04-29T02:38:33.450Z,3.90
2018-04-29T02:41:01.103Z,3.40
2018-04-29T02:43:28.742Z,3.70
2018-04-29T02:45:57.199Z,4.37
2018-04-29T02:48:24.836Z,3.90
2018-04-29T02:50:53.286Z,3.53
2018-04-29T02:53:20.939Z,4.20
2018-04-29T02:55:48.561Z,3.70
2018-04-29T02:58:16.222Z,3.50
2018-04-29T03:00:43.859Z,3.93
2018-04-29T03:03:11.546Z,3.67
2018-04-29T03:05:39.151Z,3.60
2018-04-29T03:08:06.782Z,3.47
2018-04-29T03:10:34.440Z,3.87
2018-04-29T03:13:02.058Z,3.87
2018-04-29T03:15:29.718Z,3.50
2018-04-29T03:17:58.117Z,3.33
2018-04-29T03:20:26.534Z,3.47
2018-04-29T03:22:54.929Z,3.67
2018-04-29T03:25:23.330Z,3.97
2018-04-29T03:27:51.725Z,4.07
2018-04-29T03:30:20.346Z,4.10
2018-04-29T03:32:47.979Z,3.97
2018-04-29T03:35:15.623Z,4.10
2018-04-29T03:37:43.282Z,4.43
2018-04-29T03:40:10.925Z,4.20
2018-04-29T03:42:38.581Z,4.00
2018-04-29T03:45:07.010Z,3.67
2018-04-29T03:47:34.641Z,4.27
2018-04-29T03:50:02.294Z,4.10
2018-04-29T03:52:31.286Z,4.10
2018-04-29T03:54:59.069Z,4.10
2018-04-29T03:57:38.454Z,4.33
2018-04-29T04:00:27.880Z,4.37
2018-04-29T04:03:07.333Z,4.23
2018-04-29T04:05:35.129Z,3.87
2018-04-29T04:08:02.822Z,4.27
2018-04-29T04:10:31.543Z,3.77
2018-04-29T04:12:59.945Z,4.33
2018-04-29T04:15:28.343Z,4.10
2018-04-29T04:17:55.962Z,4.17
2018-04-29T04:20:23.601Z,4.50
2018-04-29T04:22:51.235Z,4.40
2018-04-29T04:25:19.021Z,3.63
2018-04-29T04:27:47.418Z,3.60
2018-04-29T04:30:15.854Z,3.63
2018-04-29T04:32:43.510Z,3.90
2018-04-29T04:35:11.905Z,3.93
2018-04-29T04:37:39.584Z,3.60
2018-04-29T04:40:07.281Z,4.20
2018-04-29T04:42:34.930Z,3.70
2018-04-29T04:53:51.389Z,4.00
2018-04-29T04:56:19.070Z,4.03
2018-04-29T04:58:46.765Z,3.47
2018-04-29T05:01:14.383Z,3.50
2018-04-29T05:03:42.044Z,3.23
2018-04-29T05:06:09.669Z,4.00
2018-04-29T05:08:37.353Z,3.57
2018-04-29T05:11:04.998Z,3.63
2018-04-29T05:13:32.701Z,3.80
2018-04-29T05:16:00.358Z,3.77
2018-04-29T05:18:27.990Z,3.30
2018-04-29T05:20:55.646Z,3.10
2018-04-29T05:23:23.269Z,3.63
2018-04-29T05:25:51.121Z,3.73
2018-04-29T05:28:18.765Z,3.43
2018-04-29T05:30:46.422Z,2.80
2018-04-29T05:33:14.086Z,3.10
2018-04-29T05:35:41.721Z,3.00
2018-04-29T05:38:09.363Z,2.70
2018-04-29T05:40:36.965Z,2.80
2018-04-29T05:43:04.662Z,2.90
2018-04-29T05:45:32.278Z,3.00
2018-04-29T05:47:59.947Z,2.70
2018-04-29T05:50:27.623Z,2.97
2018-04-29T05:52:55.261Z,2.60
2018-04-29T05:55:23.728Z,2.77
2018-04-29T05:57:51.358Z,2.90
2018-04-29T06:00:19.837Z,2.73
2018-04-29T06:02:47.437Z,2.70
2018-04-29T06:05:16.177Z,2.50
2018-04-29T06:07:44.006Z,2.90
2018-04-29T06:10:11.611Z,2.10
2018-04-29T06:12:39.245Z,2.43
2018-04-29T06:15:08.086Z,2.30
2018-04-29T06:17:35.711Z,2.40
2018-04-29T06:20:04.174Z,2.63
2018-04-29T06:22:31.812Z,2.10
2018-04-29T06:25:00.249Z,2.17
2018-04-29T06:27:27.870Z,2.47
2018-04-29T06:29:55.553Z,2.53
2018-04-29T06:32:23.186Z,2.70
2018-04-29T06:34:51.307Z,2.27
2018-04-29T06:37:19.727Z,2.20
2018-04-29T06:39:47.399Z,2.20
2018-04-29T06:42:15.806Z,2.00
2018-04-29T06:44:44.230Z,1.93
2018-04-29T06:47:11.858Z,2.10
2018-04-29T06:49:39.506Z,2.20
2018-04-29T06:52:07.127Z,2.30
2018-04-29T06:54:34.769Z,2.03
2018-04-29T06:57:02.421Z,2.17
2018-04-29T06:59:30.058Z,2.10
2018-04-29T07:01:57.714Z,2.30
2018-04-29T07:04:25.359Z,2.03
2018-04-29T07:06:53.772Z,2.30
2018-04-29T07:09:22.172Z,1.90
2018-04-29T07:11:49.826Z,2.17
2018-04-29T07:14:17.471Z,1.90
2018-04-29T07:16:45.113Z,2.43
2018-04-29T07:19:12.761Z,1.90
2018-04-29T07:21:41.166Z,2.17
2018-04-29T07:24:09.897Z,2.07
2018-04-29T07:26:37.518Z,2.10
2018-04-29T07:29:05.248Z,1.90
2018-04-29T07:31:33.641Z,2.20
2018-04-29T07:34:02.106Z,2.27
2018-04-29T07:36:29.729Z,2.13
2018-04-29T07:38:57.334Z,2.20
2018-04-29T07:41:25.751Z,2.10
2018-04-29T07:43:53.391Z,2.30
2018-04-29T07:46:21.131Z,2.00
2018-04-29T07:48:48.743Z,2.20
2018-04-29T07:51:16.422Z,2.10
2018-04-29T07:59:35.433Z,2.13
2018-04-29T08:02:03.094Z,2.50
2018-04-29T08:04:30.826Z,2.13
2018-04-29T08:06:58.455Z,2.10
2018-04-29T08:09:26.121Z,2.33
2018-04-29T08:11:54.570Z,2.40
2018-04-29T08:14:22.938Z,2.37
2018-04-29T08:16:50.902Z,2.50
2018-04-29T08:19:19.063Z,2.67
2018-04-29T08:21:47.542Z,2.57
2018-04-29T08:24:15.330Z,2.50
2018-04-29T08:26:43.130Z,2.20
2018-04-29T08:29:11.051Z,2.70
2018-04-29T08:31:39.161Z,2.50
2018-04-29T08:34:17.380Z,2.70
2018-04-29T08:36:46.158Z,2.53
2018-04-29T08:39:13.919Z,3.03
2018-04-29T08:41:41.986Z,2.60
2018-04-29T08:44:09.806Z,2.80
2018-04-29T08:46:37.723Z,2.60
2018-04-29T08:49:05.611Z,2.70
2018-04-29T08:51:33.361Z,2.87
2018-04-29T08:54:01.274Z,3.23
2018-04-29T08:56:29.232Z,3.40
2018-04-29T08:58:57.750Z,3.17
2018-04-29T09:01:26.385Z,2.90
2018-04-29T09:04:00.592Z,2.90
2018-04-29T09:06:28.706Z,3.17
2018-04-29T09:08:56.728Z,2.90
2018-04-29T09:11:24.575Z,3.30
2018-04-29T09:13:52.357Z,3.10
2018-04-29T09:16:20.114Z,3.40
2018-04-29T09:18:47.787Z,3.80
2018-04-29T09:21:15.449Z,3.20
2018-04-29T09:23:43.600Z,3.37
2018-04-29T09:26:11.292Z,3.10
2018-04-29T09:28:39.023Z,3.07
2018-04-29T09:34:11.923Z,3.47
2018-04-29T09:36:40.436Z,3.70
2018-04-29T09:39:08.137Z,3.37
2018-04-29T09:41:36.562Z,3.70
2018-04-29T09:44:05.061Z,3.97
2018-04-29T09:46:32.691Z,3.47
2018-04-29T09:49:01.310Z,3.60
2018-04-29T09:51:29.901Z,3.27
2018-04-29T09:53:58.347Z,4.00
2018-04-29T09:56:26.381Z,3.40
2018-04-29T09:58:54.370Z,3.60
2018-04-29T10:01:26.481Z,3.77
2018-04-29T10:03:54.624Z,3.40
2018-04-29T10:06:22.798Z,3.60
2018-04-29T10:09:01.050Z,3.80
2018-04-29T10:17:16.057Z,3.93
2018-04-29T10:19:44.587Z,4.40
2018-04-29T10:22:12.292Z,3.93
2018-04-29T10:24:40.068Z,3.37
2018-04-29T10:27:07.636Z,3.87
2018-04-29T10:29:47.991Z,4.20
2018-04-29T10:32:16.321Z,4.07
2018-04-29T10:34:44.797Z,4.30
2018-04-29T10:37:13.577Z,3.77
2018-04-29T10:39:41.550Z,3.43
2018-04-29T10:42:09.216Z,3.83
2018-04-29T10:44:37.626Z,4.20
2018-04-29T10:47:06.465Z,3.70
2018-04-29T10:49:34.370Z,4.10
2018-04-29T10:52:02.050Z,4.30
2018-04-29T10:54:30.601Z,3.77
2018-04-29T10:56:58.257Z,4.43
2018-04-29T10:59:25.915Z,4.40
2018-04-29T11:04:53.712Z,4.07
2018-04-29T11:07:22.151Z,3.87
2018-04-29T11:09:49.802Z,3.80
2018-04-29T11:12:18.297Z,4.10
2018-04-29T11:14:54.525Z,3.83
2018-04-29T11:17:22.959Z,4.17
2018-04-29T11:19:50.654Z,3.73
2018-04-29T11:22:18.306Z,4.17
2018-04-29T11:24:46.025Z,4.10
2018-04-29T11:27:13.605Z,3.70
2018-04-29T11:29:42.021Z,3.80
2018-04-29T11:32:09.642Z,4.00
2018-04-29T11:34:37.293Z,3.77
2018-04-29T11:37:04.938Z,4.30
2018-04-29T11:39:32.605Z,3.73
2018-04-29T11:42:01.493Z,4.00
2018-04-29T11:44:30.082Z,3.70
2018-04-29T11:46:57.734Z,4.03
2018-04-29T11:49:25.402Z,4.03
2018-04-29T11:51:53.063Z,3.80
2018-04-29T11:54:21.482Z,3.43
2018-04-29T11:56:49.898Z,3.70
2018-04-29T11:59:17.553Z,3.90
2018-04-29T12:01:45.183Z,3.67
2018-04-29T12:04:12.854Z,3.67
2018-04-29T12:06:41.242Z,3.43
2018-04-29T12:09:08.894Z,3.23
2018-04-29T12:11:36.531Z,3.57
2018-04-29T12:14:04.210Z,3.90
2018-04-29T12:16:31.901Z,3.80
2018-04-29T12:19:00.308Z,3.77
2018-04-29T12:21:28.738Z,3.37
2018-04-29T12:23:56.369Z,3.20
2018-04-29T12:26:24.065Z,2.97
2018-04-29T12:28:51.685Z,3.17
2018-04-29T12:31:20.086Z,2.87
2018-04-29T12:33:47.781Z,3.08
2018-04-29T12:36:15.438Z,2.72
2018-04-29T12:38:53.594Z,3.27
2018-04-29T12:41:21.226Z,2.83
2018-04-29T12:43:48.894Z,3.50
2018-04-29T12:46:16.553Z,3.20
2018-04-29T12:48:44.189Z,3.20
2018-04-29T12:51:12.626Z,3.00
2018-04-29T12:53:40.253Z,3.53
2018-04-29T12:56:07.907Z,3.60
2018-04-29T12:58:35.521Z,3.10
2018-04-29T13:01:03.228Z,3.43
2018-04-29T13:03:30.871Z,3.50
2018-04-29T13:05:58.675Z,3.58
2018-04-29T13:08:26.301Z,3.42
2018-04-29T13:10:53.935Z,3.15
2018-04-29T13:13:25.678Z,3.35
2018-04-29T13:15:54.124Z,3.97
2018-04-29T13:18:22.917Z,3.58
2018-04-29T13:20:50.546Z,3.25
2018-04-29T13:23:18.218Z,3.15
2018-04-29T13:25:45.874Z,3.60
2018-04-29T13:28:14.169Z,3.20
2018-04-29T13:30:42.565Z,3.03
2018-04-29T13:33:11.012Z,3.15
2018-04-29T13:35:38.669Z,3.40
2018-04-29T13:38:06.341Z,3.08
2018-04-29T13:40:34.737Z,3.70
2018-04-29T13:43:02.402Z,3.47
2018-04-29T13:45:30.042Z,3.47
2018-04-29T13:48:03.527Z,2.95
2018-04-29T13:50:31.158Z,3.30
2018-04-29T13:53:01.325Z,3.60
2018-04-29T13:55:29.010Z,3.62
2018-04-29T13:57:56.667Z,2.87
2018-04-29T14:00:24.361Z,3.00
2018-04-29T14:02:52.006Z,3.33
2018-04-29T14:05:19.657Z,2.87
2018-04-29T14:07:47.307Z,3.50
2018-04-29T14:13:20.286Z,3.55
2018-04-29T14:15:48.334Z,3.62
2018-04-29T14:18:15.982Z,3.37
2018-04-29T14:20:52.314Z,3.10
2018-04-29T14:23:19.973Z,3.15
2018-04-29T14:25:54.041Z,3.17
2018-04-29T14:28:22.758Z,3.60
2018-04-29T14:30:50.924Z,3.17
2018-04-29T14:33:18.941Z,3.17
2018-04-29T14:35:46.590Z,3.40
2018-04-29T14:38:14.245Z,3.33
2018-04-29T14:40:41.899Z,3.67
2018-04-29T14:43:09.561Z,3.78
2018-04-29T14:51:29.955Z,3.30
2018-04-29T14:53:57.638Z,3.20
2018-04-29T14:56:25.342Z,3.60
2018-04-29T14:58:53.113Z,3.70
2018-04-29T15:01:21.602Z,3.17
2018-04-29T15:06:47.094Z,3.20
2018-04-29T15:09:21.511Z,3.28
2018-04-29T15:11:51.612Z,3.40
2018-04-29T15:14:19.704Z,3.67
2018-04-29T15:16:47.375Z,2.70
2018-04-29T15:19:15.103Z,3.05
2018-04-29T15:21:42.727Z,3.13
2018-04-29T15:24:35.360Z,3.00
2018-04-29T15:27:02.997Z,3.00
2018-04-29T15:29:31.442Z,3.12
2018-04-29T15:31:59.074Z,3.57
2018-04-29T15:34:26.760Z,2.77
2018-04-29T15:36:54.373Z,3.40
2018-04-29T15:39:22.789Z,3.17
2018-04-29T15:41:50.473Z,2.90
2018-04-29T15:44:18.174Z,2.97
2018-04-29T15:46:45.829Z,2.97
2018-04-29T15:49:13.564Z,3.03
2018-04-29T15:51:41.220Z,3.30
2018-04-29T15:54:09.843Z,2.70
2018-04-29T15:56:37.478Z,2.63
2018-04-29T15:59:05.990Z,3.10
2018-04-29T16:01:35.431Z,2.97
2018-04-29T16:04:03.902Z,2.80
2018-04-29T16:06:31.553Z,2.93
2018-04-29T16:08:59.217Z,2.97
2018-04-29T16:11:27.623Z,2.77
2018-04-29T16:13:56.089Z,3.20
2018-04-29T16:16:23.763Z,2.87
2018-04-29T16:18:51.431Z,3.30
2018-04-29T16:21:19.113Z,3.00
2018-04-29T16:23:46.779Z,3.30
2018-04-29T16:26:14.454Z,2.90
2018-04-29T16:28:42.130Z,3.03
2018-04-29T16:31:10.158Z,2.87
2018-04-29T16:33:37.806Z,3.00
2018-04-29T16:36:05.457Z,3.07
2018-04-29T16:38:33.103Z,3.27
2018-04-29T16:41:00.767Z,2.70
2018-04-29T16:43:28.435Z,3.10
2018-04-29T16:45:56.097Z,2.93
2018-04-29T16:48:23.761Z,3.07
2018-04-29T16:50:51.406Z,2.30
2018-04-29T16:53:19.033Z,3.23
2018-04-29T16:55:46.686Z,2.87
2018-04-29T16:58:14.326Z,2.80
2018-04-29T17:00:42.727Z,2.80
2018-04-29T17:03:11.158Z,3.40
2018-04-29T17:05:38.826Z,3.17
2018-04-29T17:08:06.464Z,3.03
2018-04-29T17:10:34.132Z,3.43
2018-04-29T17:13:01.908Z,3.13
2018-04-29T17:15:30.370Z,3.20
2018-04-29T17:17:58.001Z,3.30
2018-04-29T17:20:25.647Z,3.00
2018-04-29T17:22:53.270Z,3.23
2018-04-29T17:25:20.958Z,3.53
2018-04-29T17:27:48.604Z,3.10
2018-04-29T17:30:16.249Z,3.37
2018-04-29T17:32:44.718Z,3.63
2018-04-29T17:35:12.354Z,3.37
2018-04-29T17:37:57.498Z,3.53
2018-04-29T17:40:25.135Z,3.07
2018-04-29T17:42:52.817Z,3.60
2018-04-29T17:45:20.486Z,3.50
2018-04-29T17:47:48.890Z,3.20
2018-04-29T17:50:17.089Z,3.33
2018-04-29T17:52:44.744Z,3.50
2018-04-29T17:55:12.389Z,3.40
2018-04-29T17:57:40.022Z,3.20
2018-04-29T18:00:07.695Z,3.40
2018-04-29T18:02:35.358Z,3.37
2018-04-29T18:05:03.027Z,3.40
2018-04-29T18:07:30.690Z,3.50
2018-04-29T18:09:59.073Z,3.73
2018-04-29T18:12:26.777Z,3.30
2018-04-29T18:14:54.422Z,3.60
2018-04-29T18:17:22.094Z,3.37
2018-04-29T18:19:49.849Z,3.40
2018-04-29T18:22:17.590Z,3.73
2018-04-29T18:24:45.242Z,3.70
2018-04-29T18:27:13.790Z,3.47
2018-04-29T18:29:41.444Z,3.40
2018-04-29T18:32:20.891Z,3.50
2018-04-29T18:34:48.574Z,3.77
2018-04-29T18:37:16.221Z,3.53
2018-04-29T18:39:43.895Z,3.73
2018-04-29T18:42:12.287Z,3.13
2018-04-29T18:44:39.975Z,3.63
2018-04-29T18:47:07.598Z,3.50
2018-04-29T18:49:36.006Z,3.33
2018-04-29T18:52:04.457Z,4.07
2018-04-29T18:54:32.106Z,4.00
2018-04-29T18:57:00.538Z,3.40
2018-04-29T18:59:28.254Z,3.60
2018-04-29T19:01:55.913Z,3.87
2018-04-29T19:04:23.590Z,3.50
2018-04-29T19:06:51.229Z,3.90
2018-04-29T19:09:18.920Z,4.03
2018-04-29T19:11:46.986Z,3.80
2018-04-29T19:14:14.759Z,3.53
2018-04-29T19:16:42.401Z,3.63
2018-04-29T19:19:10.054Z,3.90
2018-04-29T19:21:37.724Z,3.70
2018-04-29T19:24:05.442Z,3.43
2018-04-29T19:26:33.078Z,3.80
2018-04-29T19:29:01.465Z,3.80
2018-04-29T19:31:29.945Z,4.00
2018-04-29T19:34:03.785Z,3.93
2018-04-29T19:36:31.425Z,3.37
2018-04-29T19:38:59.797Z,3.67
2018-04-29T19:41:27.910Z,4.33
2018-04-29T19:43:55.633Z,3.83
2018-04-29T19:46:46.209Z,4.13
2018-04-29T19:49:13.877Z,3.77
2018-04-29T19:51:47.510Z,4.10
2018-04-29T19:54:15.373Z,4.03
2018-04-29T19:56:43.918Z,4.17
2018-04-29T19:59:12.366Z,4.37
2018-04-29T20:01:40.090Z,3.73
2018-04-29T20:04:07.907Z,3.90
2018-04-29T20:06:35.537Z,4.57
2018-04-29T20:09:03.271Z,3.77
2018-04-29T20:11:31.049Z,3.97
2018-04-29T20:13:58.712Z,4.07
2018-04-29T20:16:27.097Z,4.27
2018-04-29T20:21:58.435Z,4.07
2018-04-29T20:24:26.131Z,4.53
2018-04-29T20:26:53.761Z,4.00
2018-04-29T20:29:26.570Z,4.40
2018-04-29T20:31:54.373Z,3.97
2018-04-29T20:34:22.023Z,3.70
2018-04-29T20:36:49.706Z,4.13
2018-04-29T20:39:17.350Z,4.03
2018-04-29T20:41:45.039Z,4.10
2018-04-29T20:44:12.663Z,3.90
2018-04-29T20:46:40.318Z,4.13
2018-04-29T20:49:07.952Z,4.17
2018-04-29T20:51:35.605Z,4.40
2018-04-29T20:54:03.246Z,4.07
2018-04-29T20:56:31.674Z,3.87
2018-04-29T20:58:59.356Z,4.13
2018-04-29T21:01:28.096Z,4.30
2018-04-29T21:07:05.117Z,4.30
2018-04-29T21:09:33.258Z,4.20
2018-04-29T21:12:00.913Z,4.47
2018-04-29T21:14:29.669Z,4.20
2018-04-29T21:16:57.354Z,3.73
2018-04-29T21:19:25.002Z,3.93
2018-04-29T21:21:52.676Z,3.77
2018-04-29T21:24:20.410Z,3.67
2018-04-29T21:26:48.457Z,4.33
2018-04-29T21:29:17.154Z,4.53
2018-04-29T21:31:45.253Z,4.47
2018-04-29T21:34:13.884Z,3.93
2018-04-29T21:36:42.287Z,4.20
2018-04-29T21:39:09.941Z,3.90
2018-04-29T21:41:37.567Z,4.40
2018-04-29T21:44:06.010Z,3.87
2018-04-29T21:46:33.666Z,4.13
2018-04-29T21:49:02.066Z,4.10
2018-04-29T21:51:30.485Z,4.00
2018-04-29T21:53:58.109Z,4.03
2018-04-29T21:56:25.762Z,4.20
2018-04-29T21:59:14.568Z,4.13
2018-04-29T22:01:42.258Z,4.40
2018-04-29T22:04:09.978Z,4.40
2018-04-29T22:06:37.616Z,4.10
2018-04-29T22:09:05.614Z,4.70
2018-04-29T22:11:33.249Z,3.90
2018-04-29T22:14:00.925Z,4.47
2018-04-29T22:16:29.309Z,4.40
2018-04-29T22:18:56.974Z,4.00
2018-04-29T22:21:24.609Z,4.10
2018-04-29T22:23:52.270Z,3.67
2018-04-29T22:26:19.917Z,3.83
2018-04-29T22:28:47.817Z,4.67
2018-04-29T22:31:16.873Z,4.17
2018-04-29T22:33:44.525Z,4.30
2018-04-29T22:36:12.230Z,4.10
2018-04-29T22:38:40.655Z,4.53
2018-04-29T22:41:08.320Z,5.00
2018-04-29T22:43:36.709Z,4.60
2018-04-29T22:46:04.361Z,4.70
2018-04-29T22:48:32.005Z,4.40
2018-04-29T22:51:00.427Z,4.60
2018-04-29T22:53:28.100Z,4.13
2018-04-29T22:55:55.721Z,4.37
2018-04-29T22:58:23.447Z,4.47
2018-04-29T23:00:51.149Z,4.40
2018-04-29T23:03:18.790Z,4.40
2018-04-29T23:05:46.395Z,4.20
2018-04-29T23:08:14.086Z,4.40
2018-04-29T23:10:43.088Z,4.57
2018-04-29T23:13:10.723Z,4.47
2018-04-29T23:15:38.482Z,4.37
2018-04-29T23:18:06.178Z,4.07
2018-04-29T23:20:33.805Z,4.33
2018-04-29T23:23:02.250Z,4.17
2018-04-29T23:25:29.898Z,4.30
2018-04-29T23:27:58.314Z,4.60
2018-04-29T23:44:53.561Z,4.30
2018-04-29T23:47:21.232Z,4.30
2018-04-29T23:49:48.894Z,4.57
2018-04-29T23:52:16.533Z,4.73
2018-04-29T23:54:44.949Z,4.77
2018-04-29T23:57:13.361Z,4.37
2018-04-29T23:59:41.799Z,4.40
